Aviation Digital Data Service (ADDS)

Output produced by METARs form (1420 UTC 21 August 2019)
found at http://www.aviationweather.gov/metar/data/
 
Forecast for: WBKL (LABUAN (AFB) , MY)
Text: TAF WBKL 211100Z 2112/2212 VRB03KT 9999 FEW014
Forecast period: 1200 UTC 21 August 2019 to 1200 UTC 22 August 2019
Forecast type: FROM: standard forecast or significant change
Winds: variable direction winds at 3 MPH (3 knots; 1.5 m/s)
Visibility: 6 or more miles 10+ km)
Ceiling: at least 12,000 feet AGL
Clouds: few clouds at 1400 feet AGL
Weather: no significant weather forecast for this period
Text: TEMPO 2207/2211 4000 TSRA FEW010 FEW013CB SCT030
Forecast period: 0700 to 1100 UTC 22 August 2019
Forecast type: TEMPORARY: The following changes expected for less than half the time period
Visibility: 2.49 miles (4.01 km)
Ceiling: at least 12,000 feet AGL
Clouds: few clouds at 1000 feet AGL
few clouds at 1300 feet AGL
scattered clouds at 3000 feet AGL
Weather: TSRA  (rain associated with thunderstorm(s))